Time;durP1;ratioP1;P1;durP2;ratioP2;P2;SDS_P1;SDS_P2;PMS_P1;PMS_P2;Temp;Humidity;BMP_temperature;BMP_pressure;BME280_temperature;BME280_humidity;BME280_pressure;Samples;Min_cycle;Max_cycle;Signal;HPM_P1;HPM_P2
2022/09/17 00:00:52;;;;;;;2.00;0.90;;;11.10;99.90;;;;;;4175247;28;20208;-78
2022/09/17 00:02:55;;;;;;;4.77;0.90;;;11.10;99.90;;;;;;4171712;28;20220;-77
2022/09/17 00:04:57;;;;;;;5.07;1.10;;;11.10;99.90;;;;;;4172314;28;20569;-78
2022/09/17 00:06:59;;;;;;;3.47;1.00;;;11.10;99.90;;;;;;4174436;28;20238;-78
2022/09/17 00:09:01;;;;;;;1.77;0.90;;;11.10;99.90;;;;;;4178150;28;20772;-78
2022/09/17 00:11:07;;;;;;;3.17;1.00;;;11.10;99.90;;;;;;4178393;28;20724;-78
2022/09/17 00:13:10;;;;;;;3.50;0.90;;;11.00;99.90;;;;;;4174215;28;20659;-77
2022/09/17 00:15:12;;;;;;;3.80;0.90;;;11.00;99.90;;;;;;4179139;28;20304;-78
2022/09/17 00:17:14;;;;;;;3.23;0.90;;;11.00;99.90;;;;;;4177480;28;20241;-78
2022/09/17 00:19:19;;;;;;;2.13;1.07;;;11.00;99.90;;;;;;4180049;28;20215;-78
2022/09/17 00:21:21;;;;;;;4.00;0.80;;;11.00;99.90;;;;;;4175032;28;20214;-79
2022/09/17 00:23:23;;;;;;;4.57;1.13;;;11.00;99.90;;;;;;4175209;28;20227;-77
2022/09/17 00:25:25;;;;;;;5.37;1.10;;;11.10;99.90;;;;;;4189493;28;20228;-77
2022/09/17 00:27:27;;;;;;;3.57;1.10;;;11.10;99.90;;;;;;4187153;28;20215;-77
2022/09/17 00:29:29;;;;;;;2.77;1.00;;;11.10;99.90;;;;;;4189379;28;20197;-78
2022/09/17 00:31:31;;;;;;;4.23;1.10;;;11.10;99.90;;;;;;4193559;28;20274;-77
2022/09/17 00:33:33;;;;;;;4.93;0.80;;;11.10;99.90;;;;;;4186719;28;20248;-77
2022/09/17 00:35:36;;;;;;;4.30;1.23;;;11.10;99.90;;;;;;4189100;28;20307;-78
2022/09/17 00:37:38;;;;;;;6.57;1.10;;;11.10;99.90;;;;;;4178134;28;20621;-78
2022/09/17 00:39:39;;;;;;;3.77;0.87;;;11.20;99.90;;;;;;4169502;28;20218;-78
2022/09/17 00:41:42;;;;;;;4.87;1.07;;;11.20;99.90;;;;;;4175844;28;20212;-77
2022/09/17 00:43:47;;;;;;;5.17;1.40;;;11.20;99.90;;;;;;4173269;28;20212;-77
2022/09/17 00:45:52;;;;;;;6.27;1.37;;;11.20;99.90;;;;;;4175014;28;20232;-78
2022/09/17 00:47:58;;;;;;;5.83;1.07;;;11.20;99.90;;;;;;4173134;28;20271;-77
2022/09/17 00:50:03;;;;;;;2.47;1.10;;;11.20;99.90;;;;;;4174447;28;20255;-77
2022/09/17 00:52:10;;;;;;;3.83;1.00;;;11.20;99.90;;;;;;4172913;28;20201;-78
2022/09/17 00:54:12;;;;;;;6.27;1.43;;;11.20;99.90;;;;;;4172271;28;20208;-78
2022/09/17 00:56:21;;;;;;;3.90;1.23;;;11.20;99.90;;;;;;4165656;28;20238;-78
2022/09/17 00:58:25;;;;;;;4.97;1.53;;;11.20;99.90;;;;;;4177401;28;20205;-77
2022/09/17 01:00:29;;;;;;;3.73;1.47;;;11.20;99.90;;;;;;4175069;28;20275;-78
2022/09/17 01:02:31;;;;;;;3.53;1.00;;;11.30;99.90;;;;;;4175717;28;20236;-78
2022/09/17 01:04:33;;;;;;;3.27;0.87;;;11.30;99.90;;;;;;4172940;28;20665;-78
2022/09/17 01:06:40;;;;;;;2.33;0.97;;;11.20;99.90;;;;;;4176027;28;20308;-78
2022/09/17 01:08:54;;;;;;;3.03;0.90;;;11.30;99.90;;;;;;4175054;28;20577;-78
2022/09/17 01:11:30;;;;;;;2.90;1.00;;;11.30;99.90;;;;;;4180145;28;20229;-78
2022/09/17 01:13:43;;;;;;;3.20;1.13;;;11.30;99.90;;;;;;4183105;28;20203;-78
2022/09/17 01:15:51;;;;;;;6.03;1.53;;;11.30;99.90;;;;;;4179034;28;20225;-78
2022/09/17 01:18:12;;;;;;;3.00;0.83;;;11.30;99.90;;;;;;4178026;28;20215;-78
2022/09/17 01:20:53;;;;;;;4.73;0.80;;;11.30;99.90;;;;;;4181186;28;20209;-78
2022/09/17 01:23:17;;;;;;;1.83;0.63;;;11.30;99.90;;;;;;4144596;28;20283;-77
2022/09/17 01:25:30;;;;;;;5.17;0.60;;;11.40;99.90;;;;;;4174998;28;20212;-78
2022/09/17 01:28:00;;;;;;;2.87;0.60;;;11.40;99.90;;;;;;4177111;28;20208;-78
2022/09/17 01:30:32;;;;;;;2.07;1.00;;;11.40;99.90;;;;;;4180299;28;20235;-78
2022/09/17 01:32:39;;;;;;;2.70;0.70;;;11.40;99.90;;;;;;4173574;28;20233;-78
2022/09/17 01:34:53;;;;;;;2.63;0.70;;;11.50;99.90;;;;;;4178182;28;20269;-78
2022/09/17 01:37:03;;;;;;;1.50;0.60;;;11.50;99.90;;;;;;4170752;28;20259;-77
2022/09/17 01:39:12;;;;;;;2.10;0.40;;;11.50;99.90;;;;;;4173928;28;20283;-77
2022/09/17 01:41:39;;;;;;;1.43;0.60;;;11.50;99.90;;;;;;4171776;27;20622;-78
2022/09/17 01:43:48;;;;;;;2.30;0.90;;;11.50;99.90;;;;;;4169041;28;20197;-78
2022/09/17 01:45:51;;;;;;;1.77;0.70;;;11.50;99.90;;;;;;4205398;27;20225;-78
2022/09/17 01:47:57;;;;;;;2.53;0.80;;;11.50;99.90;;;;;;4254710;27;20737;-78
2022/09/17 01:50:04;;;;;;;1.97;0.80;;;11.50;99.90;;;;;;4265971;27;20237;-78
2022/09/17 01:52:08;;;;;;;1.83;0.50;;;11.60;99.90;;;;;;4251027;27;20223;-78
2022/09/17 01:54:15;;;;;;;2.10;0.53;;;11.50;99.90;;;;;;4249259;27;20213;-78
2022/09/17 01:56:23;;;;;;;2.07;0.40;;;11.60;99.90;;;;;;4267482;27;20557;-78
2022/09/17 01:58:30;;;;;;;0.50;0.30;;;11.60;99.90;;;;;;4249558;27;20205;-77
2022/09/17 02:00:32;;;;;;;1.13;0.30;;;11.60;99.90;;;;;;4254162;27;20222;-79
2022/09/17 02:02:41;;;;;;;1.07;0.50;;;11.60;99.90;;;;;;4249875;27;20221;-78
2022/09/17 02:04:49;;;;;;;2.40;0.33;;;11.60;99.90;;;;;;4250408;27;20213;-77
2022/09/17 02:06:57;;;;;;;2.37;0.40;;;11.60;99.90;;;;;;4252312;27;20228;-78
2022/09/17 02:09:02;;;;;;;1.43;0.80;;;11.60;99.90;;;;;;4253049;27;20238;-77
2022/09/17 02:11:08;;;;;;;0.83;0.40;;;11.70;99.90;;;;;;4271818;27;20214;-78
2022/09/17 02:13:14;;;;;;;1.30;0.57;;;11.70;99.90;;;;;;4261197;27;20281;-79
2022/09/17 02:15:22;;;;;;;2.40;0.60;;;11.70;99.90;;;;;;4258858;27;20220;-78
2022/09/17 02:17:30;;;;;;;1.53;0.50;;;11.60;99.90;;;;;;4262335;27;20210;-78
2022/09/17 02:19:36;;;;;;;1.70;0.60;;;11.70;99.90;;;;;;4267799;27;20209;-78
2022/09/17 02:21:43;;;;;;;0.93;0.40;;;11.60;99.90;;;;;;4263357;27;20201;-78
2022/09/17 02:24:00;;;;;;;3.17;0.50;;;11.70;99.90;;;;;;4257016;27;20238;-77
2022/09/17 02:26:06;;;;;;;0.97;0.40;;;11.60;99.90;;;;;;4261859;27;20276;-77
2022/09/17 02:28:16;;;;;;;1.20;0.30;;;11.60;99.90;;;;;;4258846;27;20683;-77
2022/09/17 02:30:19;;;;;;;1.13;0.40;;;11.60;99.90;;;;;;4258323;27;20195;-77
2022/09/17 02:32:23;;;;;;;2.30;0.30;;;11.70;99.90;;;;;;4255413;27;20245;-79
2022/09/17 02:34:27;;;;;;;3.13;0.60;;;11.60;99.90;;;;;;4266373;27;20596;-78
2022/09/17 02:36:31;;;;;;;0.93;0.37;;;11.60;99.90;;;;;;4268731;27;20292;-78
2022/09/17 02:38:33;;;;;;;1.33;0.40;;;11.60;99.90;;;;;;4267283;27;20258;-78
2022/09/17 02:40:41;;;;;;;0.50;0.30;;;11.60;99.90;;;;;;4264002;27;20231;-77
2022/09/17 02:42:58;;;;;;;2.67;0.47;;;11.60;99.90;;;;;;4257777;27;20218;-77
2022/09/17 02:45:06;;;;;;;1.57;0.30;;;11.60;99.90;;;;;;4257043;27;20323;-79
2022/09/17 02:47:28;;;;;;;0.73;0.20;;;11.60;99.90;;;;;;4252077;27;20201;-76
2022/09/17 02:49:43;;;;;;;0.60;0.30;;;11.60;99.90;;;;;;4250674;27;20208;-77
2022/09/17 02:51:56;;;;;;;3.07;0.40;;;11.60;99.90;;;;;;4248344;27;20228;-78
2022/09/17 02:54:05;;;;;;;1.57;0.30;;;11.60;99.90;;;;;;4237029;27;20216;-77
2022/09/17 02:56:17;;;;;;;3.50;0.33;;;11.60;99.90;;;;;;4237973;27;20225;-79
2022/09/17 02:58:26;;;;;;;0.50;0.40;;;11.60;99.90;;;;;;4246715;23;20216;-77
2022/09/17 03:00:28;;;;;;;0.67;0.30;;;11.50;99.90;;;;;;4182474;28;20701;-77
2022/09/17 03:02:36;;;;;;;0.63;0.30;;;11.50;99.90;;;;;;4171501;28;20228;-76
2022/09/17 03:04:39;;;;;;;0.40;0.20;;;11.50;99.90;;;;;;4171445;28;20242;-77
2022/09/17 03:06:41;;;;;;;0.43;0.30;;;11.50;99.90;;;;;;4169103;28;20214;-76
2022/09/17 03:08:43;;;;;;;1.03;0.37;;;11.50;99.90;;;;;;4168652;28;20226;-76
2022/09/17 03:10:45;;;;;;;1.60;0.37;;;11.50;99.90;;;;;;4171661;28;20602;-76
2022/09/17 03:12:46;;;;;;;1.00;0.33;;;11.40;99.90;;;;;;4171379;28;20270;-76
2022/09/17 03:14:48;;;;;;;0.67;0.30;;;11.40;99.90;;;;;;4169718;28;20446;-77
2022/09/17 03:16:50;;;;;;;2.50;0.40;;;11.40;99.90;;;;;;4172239;28;20212;-76
2022/09/17 03:18:53;;;;;;;0.60;0.27;;;11.40;99.90;;;;;;4170483;28;20670;-76
2022/09/17 03:20:55;;;;;;;0.53;0.40;;;11.30;99.90;;;;;;4170267;28;20225;-77
2022/09/17 03:22:57;;;;;;;0.30;0.30;;;11.30;99.90;;;;;;4169403;28;20219;-77
2022/09/17 03:24:58;;;;;;;0.20;0.20;;;11.30;99.90;;;;;;4171302;28;20204;-77
2022/09/17 03:27:00;;;;;;;0.40;0.30;;;11.30;99.90;;;;;;4169388;28;20228;-77
2022/09/17 03:29:02;;;;;;;0.97;0.30;;;11.30;99.90;;;;;;4168157;28;20240;-77
2022/09/17 03:31:05;;;;;;;2.27;0.30;;;11.30;99.90;;;;;;4171809;28;20204;-77
2022/09/17 03:33:06;;;;;;;0.30;0.27;;;11.30;99.90;;;;;;4169830;28;20666;-77
2022/09/17 03:35:10;;;;;;;0.67;0.30;;;11.20;99.90;;;;;;4175424;28;20736;-77
2022/09/17 03:37:11;;;;;;;0.30;0.30;;;11.20;99.90;;;;;;4173213;28;20206;-77
2022/09/17 03:39:13;;;;;;;0.63;0.43;;;11.20;99.90;;;;;;4169334;28;20315;-77
2022/09/17 03:41:15;;;;;;;1.20;0.30;;;11.20;99.90;;;;;;4169753;28;20709;-77
2022/09/17 03:43:17;;;;;;;0.80;0.30;;;11.20;99.90;;;;;;4172894;28;20211;-76
2022/09/17 03:45:19;;;;;;;0.57;0.30;;;11.20;99.90;;;;;;4168228;28;20204;-77
2022/09/17 03:47:21;;;;;;;0.53;0.33;;;11.20;99.90;;;;;;4168232;28;20234;-77
2022/09/17 03:49:23;;;;;;;2.30;0.40;;;11.20;99.90;;;;;;4170603;28;20217;-77
2022/09/17 03:51:26;;;;;;;1.77;0.30;;;11.20;99.90;;;;;;4182380;28;20279;-76
2022/09/17 03:53:28;;;;;;;0.50;0.30;;;11.20;99.90;;;;;;4171069;28;20202;-76
2022/09/17 03:55:30;;;;;;;3.37;0.40;;;11.10;99.90;;;;;;4173992;28;20203;-77
2022/09/17 03:57:32;;;;;;;0.40;0.40;;;11.20;99.90;;;;;;4174015;28;20288;-76
2022/09/17 03:59:34;;;;;;;0.40;0.30;;;11.10;99.90;;;;;;4170507;28;20608;-77
2022/09/17 04:01:36;;;;;;;0.83;0.50;;;11.10;99.90;;;;;;4171141;28;20224;-76
2022/09/17 04:03:38;;;;;;;0.53;0.40;;;11.00;99.90;;;;;;4171878;28;20206;-76
2022/09/17 04:05:39;;;;;;;1.47;0.40;;;11.00;99.90;;;;;;4174100;28;20210;-76
2022/09/17 04:07:42;;;;;;;0.50;0.40;;;10.90;99.90;;;;;;4172567;28;20226;-76
2022/09/17 04:09:44;;;;;;;2.53;0.50;;;10.90;99.90;;;;;;4174171;28;20449;-76
2022/09/17 04:11:46;;;;;;;2.20;0.40;;;10.80;99.90;;;;;;4170292;28;20203;-76
2022/09/17 04:13:48;;;;;;;0.53;0.40;;;10.80;99.90;;;;;;4174048;28;20200;-76
2022/09/17 04:15:50;;;;;;;1.17;0.50;;;10.70;99.90;;;;;;4171827;28;20235;-76
2022/09/17 04:17:56;;;;;;;0.93;0.50;;;10.80;99.90;;;;;;4168086;28;20211;-76
2022/09/17 04:19:58;;;;;;;1.00;0.40;;;10.70;99.90;;;;;;4164579;28;20315;-76
2022/09/17 04:22:00;;;;;;;0.40;0.40;;;10.70;99.90;;;;;;4165617;28;20235;-76
2022/09/17 04:24:03;;;;;;;0.33;0.30;;;10.70;99.90;;;;;;4167658;28;20218;-75
2022/09/17 04:26:05;;;;;;;1.77;0.30;;;10.70;99.90;;;;;;4167721;28;20212;-75
2022/09/17 04:28:07;;;;;;;2.57;0.50;;;10.70;99.90;;;;;;4169600;28;20222;-75
2022/09/17 04:30:10;;;;;;;1.57;0.50;;;10.60;99.90;;;;;;4170939;28;20596;-75
2022/09/17 04:32:12;;;;;;;0.90;0.40;;;10.60;99.90;;;;;;4171557;28;20199;-75
2022/09/17 04:34:13;;;;;;;0.70;0.33;;;10.60;99.90;;;;;;4170720;28;20208;-75
2022/09/17 04:36:15;;;;;;;0.90;0.47;;;10.60;99.90;;;;;;4171280;28;20211;-75
2022/09/17 04:38:19;;;;;;;0.30;0.30;;;10.60;99.90;;;;;;4171329;28;20736;-75
2022/09/17 04:40:23;;;;;;;0.53;0.40;;;10.50;99.90;;;;;;4169822;28;20589;-75
2022/09/17 04:42:25;;;;;;;1.17;0.50;;;10.50;99.90;;;;;;4168306;28;20727;-75
2022/09/17 04:44:26;;;;;;;0.83;0.60;;;10.50;99.90;;;;;;4168315;28;20696;-76
2022/09/17 04:46:28;;;;;;;1.73;0.77;;;10.50;99.90;;;;;;4169604;28;20226;-75
2022/09/17 04:48:30;;;;;;;0.93;0.60;;;10.50;99.90;;;;;;4168063;28;20227;-75
2022/09/17 04:50:32;;;;;;;2.53;0.60;;;10.50;99.90;;;;;;4170128;28;20659;-75
2022/09/17 04:52:34;;;;;;;2.30;0.57;;;10.50;99.90;;;;;;4167791;28;20682;-75
2022/09/17 04:54:35;;;;;;;1.50;1.10;;;10.50;99.90;;;;;;4169082;28;20698;-75
2022/09/17 04:56:39;;;;;;;1.13;0.60;;;10.50;99.90;;;;;;4170192;28;20581;-76
2022/09/17 04:58:40;;;;;;;0.53;0.53;;;10.50;99.90;;;;;;4171562;28;20364;-75
2022/09/17 05:00:42;;;;;;;0.80;0.70;;;10.50;99.90;;;;;;4171996;28;20683;-76
2022/09/17 05:02:46;;;;;;;1.87;0.90;;;10.50;99.90;;;;;;4168288;28;20201;-76
2022/09/17 05:04:49;;;;;;;3.60;0.70;;;10.50;99.90;;;;;;4170759;28;20233;-75
2022/09/17 05:06:51;;;;;;;2.53;0.83;;;10.50;99.90;;;;;;4173486;28;20230;-76
2022/09/17 05:08:53;;;;;;;1.50;0.90;;;10.50;99.90;;;;;;4167973;28;20310;-76
2022/09/17 05:10:55;;;;;;;2.13;1.03;;;10.50;99.90;;;;;;4167652;28;20463;-76
2022/09/17 05:12:58;;;;;;;1.57;0.70;;;10.50;99.90;;;;;;4170762;28;20215;-76
2022/09/17 05:15:00;;;;;;;1.67;0.80;;;10.50;99.90;;;;;;4170103;28;20199;-76
2022/09/17 05:17:02;;;;;;;2.27;0.80;;;10.50;99.90;;;;;;4170724;28;20199;-77
2022/09/17 05:19:04;;;;;;;3.67;1.20;;;10.50;99.90;;;;;;4172423;28;20245;-77
2022/09/17 05:21:06;;;;;;;1.97;1.10;;;10.50;99.90;;;;;;4175534;28;20711;-77
2022/09/17 05:23:08;;;;;;;3.00;1.43;;;10.50;99.90;;;;;;4171593;28;20198;-77
2022/09/17 05:25:10;;;;;;;4.83;1.13;;;10.50;99.90;;;;;;4170432;28;20198;-77
2022/09/17 05:27:12;;;;;;;2.90;1.10;;;10.50;99.90;;;;;;4166189;28;20664;-77
2022/09/17 05:29:16;;;;;;;1.73;1.00;;;10.50;99.90;;;;;;4172293;28;20232;-77
2022/09/17 05:31:18;;;;;;;3.97;1.50;;;10.60;99.90;;;;;;4172558;28;20195;-76
2022/09/17 05:33:20;;;;;;;4.30;1.20;;;10.60;99.90;;;;;;4173100;28;20738;-77
2022/09/17 05:35:22;;;;;;;3.70;1.47;;;10.60;99.90;;;;;;4167717;28;20211;-76
2022/09/17 05:37:24;;;;;;;2.77;1.30;;;10.60;99.90;;;;;;4170563;28;20210;-77
2022/09/17 05:39:26;;;;;;;3.07;1.60;;;10.60;99.90;;;;;;4168399;28;20237;-77
2022/09/17 05:41:27;;;;;;;5.17;1.47;;;10.60;99.90;;;;;;4170580;28;20214;-77
2022/09/17 05:43:29;;;;;;;9.07;2.20;;;10.70;99.90;;;;;;4167761;28;20243;-76
2022/09/17 05:45:33;;;;;;;6.40;1.70;;;10.70;99.90;;;;;;4169282;28;20210;-77
2022/09/17 05:47:35;;;;;;;4.33;1.70;;;10.70;99.90;;;;;;4170562;28;20241;-77
2022/09/17 05:49:37;;;;;;;7.03;2.07;;;10.70;99.90;;;;;;4169293;28;20218;-76
2022/09/17 05:51:39;;;;;;;7.47;2.00;;;10.70;99.90;;;;;;4174750;28;20195;-77
2022/09/17 05:53:41;;;;;;;6.27;1.63;;;10.80;99.90;;;;;;4172074;28;20318;-77
2022/09/17 05:55:43;;;;;;;9.40;2.13;;;10.80;99.90;;;;;;4168876;28;20239;-77
2022/09/17 05:57:44;;;;;;;5.00;1.73;;;10.80;99.90;;;;;;4170963;28;20294;-78
2022/09/17 05:59:46;;;;;;;6.53;1.60;;;10.80;99.90;;;;;;4170057;28;20242;-78
2022/09/17 06:01:49;;;;;;;6.67;1.67;;;10.80;99.90;;;;;;4171239;28;20219;-77
2022/09/17 06:03:52;;;;;;;9.27;1.53;;;10.90;99.90;;;;;;4169611;28;20219;-78
2022/09/17 06:05:57;;;;;;;5.50;1.53;;;10.90;99.90;;;;;;4167507;28;20223;-78
2022/09/17 06:07:58;;;;;;;8.17;2.03;;;10.90;99.90;;;;;;4166334;28;20233;-78
2022/09/17 06:10:00;;;;;;;10.77;1.80;;;11.00;99.90;;;;;;4170935;28;20306;-77
2022/09/17 06:12:03;;;;;;;9.13;1.60;;;11.00;99.90;;;;;;4168806;28;20246;-77
2022/09/17 06:14:05;;;;;;;3.77;1.33;;;11.00;99.90;;;;;;4169571;28;20209;-78
2022/09/17 06:16:07;;;;;;;8.13;1.93;;;11.00;99.90;;;;;;4171595;28;20685;-77
2022/09/17 06:18:10;;;;;;;3.83;1.50;;;11.10;99.90;;;;;;4167678;28;20212;-77
2022/09/17 06:20:12;;;;;;;8.40;1.87;;;11.10;99.90;;;;;;4170258;28;20214;-77
2022/09/17 06:22:13;;;;;;;9.13;2.10;;;11.20;99.90;;;;;;4172629;28;20208;-77
2022/09/17 06:24:15;;;;;;;6.53;2.17;;;11.10;99.90;;;;;;4172051;28;20203;-77
2022/09/17 06:26:17;;;;;;;8.00;1.90;;;11.20;99.90;;;;;;4169662;28;20569;-77
2022/09/17 06:28:19;;;;;;;10.20;1.80;;;11.20;99.90;;;;;;4172071;28;20215;-77
2022/09/17 06:30:21;;;;;;;7.80;2.13;;;11.20;99.90;;;;;;4173399;28;20205;-78
2022/09/17 06:32:23;;;;;;;4.40;1.40;;;11.20;99.90;;;;;;4170230;28;20334;-78
2022/09/17 06:34:26;;;;;;;8.43;1.90;;;11.20;99.90;;;;;;4172564;28;20205;-77
2022/09/17 06:36:28;;;;;;;6.60;1.97;;;11.30;99.90;;;;;;4173141;28;20209;-78
2022/09/17 06:38:32;;;;;;;10.97;2.03;;;11.30;99.90;;;;;;4169346;28;20732;-77
2022/09/17 06:40:33;;;;;;;5.87;1.73;;;11.30;99.90;;;;;;4171853;28;20278;-77
2022/09/17 06:42:35;;;;;;;10.30;1.83;;;11.30;99.90;;;;;;4172237;28;20231;-78
2022/09/17 06:44:37;;;;;;;5.80;1.40;;;11.30;99.90;;;;;;4175959;28;20205;-77
2022/09/17 06:46:39;;;;;;;5.97;1.40;;;11.30;99.90;;;;;;4176391;28;20583;-77
2022/09/17 06:48:40;;;;;;;12.23;2.00;;;11.40;99.90;;;;;;4176067;28;20227;-76
2022/09/17 06:50:44;;;;;;;7.27;1.47;;;11.40;99.90;;;;;;4174445;28;20239;-77
2022/09/17 06:52:49;;;;;;;10.73;1.50;;;11.40;99.90;;;;;;4173557;28;20198;-77
2022/09/17 06:54:51;;;;;;;8.03;1.50;;;11.40;99.90;;;;;;4169940;28;20200;-77
2022/09/17 06:56:52;;;;;;;11.90;1.50;;;11.40;99.90;;;;;;4172072;28;20387;-77
2022/09/17 06:58:54;;;;;;;9.53;1.70;;;11.50;99.90;;;;;;4188257;28;20323;-77
2022/09/17 07:00:59;;;;;;;7.43;1.57;;;11.50;99.90;;;;;;4174395;28;20626;-77
2022/09/17 07:03:01;;;;;;;6.80;1.43;;;11.50;99.90;;;;;;4189469;28;20657;-77
2022/09/17 07:05:04;;;;;;;9.43;1.70;;;11.60;99.90;;;;;;4173673;28;20211;-77
2022/09/17 07:07:08;;;;;;;5.57;1.23;;;11.60;99.90;;;;;;4173294;28;20653;-77
2022/09/17 07:09:10;;;;;;;8.17;1.50;;;11.60;99.90;;;;;;4175974;28;20232;-77
2022/09/17 07:11:12;;;;;;;7.97;1.40;;;11.70;99.90;;;;;;4173246;28;20232;-77
2022/09/17 07:13:14;;;;;;;10.60;1.73;;;11.70;99.90;;;;;;4175292;28;20200;-78
2022/09/17 07:15:16;;;;;;;9.47;1.90;;;11.80;99.90;;;;;;4174577;28;20699;-78
2022/09/17 07:17:18;;;;;;;6.17;1.70;;;11.80;99.90;;;;;;4172679;28;20269;-78
2022/09/17 07:19:19;;;;;;;9.83;1.80;;;11.80;99.90;;;;;;4174098;28;20312;-78
2022/09/17 07:21:21;;;;;;;8.50;1.57;;;11.90;99.90;;;;;;4172610;28;20517;-77
2022/09/17 07:23:26;;;;;;;9.23;1.50;;;11.90;99.90;;;;;;4169811;28;20250;-78
2022/09/17 07:25:28;;;;;;;8.43;2.40;;;11.90;99.90;;;;;;4173480;28;20199;-78
2022/09/17 07:27:31;;;;;;;9.13;1.63;;;12.00;99.90;;;;;;4187819;28;20212;-78
2022/09/17 07:29:33;;;;;;;13.40;1.50;;;12.00;99.90;;;;;;4171513;28;20233;-78
2022/09/17 07:31:35;;;;;;;10.93;1.50;;;12.00;99.90;;;;;;4172747;28;20204;-78
2022/09/17 07:33:39;;;;;;;5.20;1.37;;;12.10;99.90;;;;;;4171566;28;20628;-78
2022/09/17 07:35:40;;;;;;;5.73;1.30;;;12.10;99.90;;;;;;4171161;28;20675;-78
2022/09/17 07:37:42;;;;;;;5.07;1.40;;;12.10;99.90;;;;;;4170739;28;20224;-78
2022/09/17 07:39:45;;;;;;;8.53;1.50;;;12.10;99.90;;;;;;4173161;28;20767;-77
2022/09/17 07:41:47;;;;;;;9.10;1.80;;;12.20;99.90;;;;;;4170257;28;20293;-78
2022/09/17 07:43:53;;;;;;;7.10;1.50;;;12.20;99.90;;;;;;4174170;28;20217;-77
2022/09/17 07:45:56;;;;;;;7.90;1.20;;;12.30;99.90;;;;;;4174238;28;20615;-78
2022/09/17 07:47:58;;;;;;;10.97;2.10;;;12.30;99.90;;;;;;4173703;28;20644;-77
2022/09/17 07:50:00;;;;;;;11.17;1.83;;;12.40;99.90;;;;;;4171171;28;20227;-77
2022/09/17 07:52:05;;;;;;;4.70;1.10;;;12.40;99.90;;;;;;4174352;28;20206;-78
2022/09/17 07:54:07;;;;;;;6.13;1.33;;;12.40;99.90;;;;;;4171408;28;20611;-79
2022/09/17 07:56:10;;;;;;;6.20;1.30;;;12.40;99.90;;;;;;4186979;28;20206;-78
2022/09/17 07:58:12;;;;;;;5.67;1.00;;;12.40;99.90;;;;;;4173283;28;20690;-77
2022/09/17 08:00:15;;;;;;;8.30;1.30;;;12.50;99.90;;;;;;4170518;28;20237;-79
2022/09/17 08:02:17;;;;;;;3.90;1.10;;;12.50;99.90;;;;;;4172964;28;20269;-79
2022/09/17 08:04:18;;;;;;;3.57;1.20;;;12.60;99.90;;;;;;4173116;28;20249;-80
2022/09/17 08:06:22;;;;;;;2.33;0.93;;;12.60;99.90;;;;;;4167930;28;20636;-79
2022/09/17 08:08:24;;;;;;;5.50;1.10;;;12.60;99.90;;;;;;4167400;28;20326;-77
2022/09/17 08:10:26;;;;;;;4.93;1.37;;;12.60;99.90;;;;;;4171500;28;20212;-77
2022/09/17 08:12:29;;;;;;;3.60;0.90;;;12.70;99.90;;;;;;4172282;28;20211;-78
2022/09/17 08:14:31;;;;;;;4.83;1.13;;;12.70;99.90;;;;;;4188043;28;20690;-78
2022/09/17 08:16:32;;;;;;;6.53;1.23;;;12.70;99.90;;;;;;4175295;28;20233;-77
2022/09/17 08:18:35;;;;;;;4.93;1.20;;;12.70;99.90;;;;;;4170085;28;20312;-78
2022/09/17 08:20:37;;;;;;;9.73;1.50;;;12.70;99.90;;;;;;4168795;28;20207;-77
2022/09/17 08:22:39;;;;;;;3.53;1.10;;;12.80;99.90;;;;;;4170577;28;20733;-78
2022/09/17 08:24:41;;;;;;;4.67;1.10;;;12.80;99.90;;;;;;4170098;28;20242;-79
2022/09/17 08:26:43;;;;;;;5.53;1.13;;;12.90;99.90;;;;;;4173230;28;20293;-78
2022/09/17 08:28:47;;;;;;;5.90;1.23;;;12.90;99.90;;;;;;4171373;28;20233;-78
2022/09/17 08:30:49;;;;;;;3.20;1.10;;;13.00;99.90;;;;;;4170251;28;20296;-77
2022/09/17 08:32:51;;;;;;;5.73;1.17;;;13.00;99.90;;;;;;4167398;28;20288;-78
2022/09/17 08:34:53;;;;;;;9.77;1.10;;;13.00;99.90;;;;;;4166391;28;20252;-77
2022/09/17 08:36:55;;;;;;;4.77;1.10;;;13.10;99.90;;;;;;4171566;28;20448;-77
2022/09/17 08:38:57;;;;;;;4.93;0.97;;;13.10;99.90;;;;;;4171892;28;20226;-79
2022/09/17 08:41:09;;;;;;;5.70;1.00;;;13.10;99.90;;;;;;4171627;28;20356;-78
2022/09/17 08:43:18;;;;;;;6.80;1.17;;;13.10;99.90;;;;;;4176083;28;20244;-78
2022/09/17 08:45:21;;;;;;;6.80;1.23;;;13.20;99.90;;;;;;4165361;28;20209;-78
2022/09/17 08:47:28;;;;;;;5.47;1.17;;;13.20;99.90;;;;;;4170175;28;20202;-79
2022/09/17 08:49:35;;;;;;;4.87;1.13;;;13.20;99.90;;;;;;4168517;28;20222;-79
2022/09/17 08:51:50;;;;;;;6.63;1.20;;;13.30;99.90;;;;;;4173728;28;20205;-79
2022/09/17 08:54:01;;;;;;;3.50;0.83;;;13.30;99.90;;;;;;4173720;28;20214;-78
2022/09/17 08:56:10;;;;;;;3.63;1.10;;;13.40;99.90;;;;;;4171294;28;20308;-77
2022/09/17 08:58:40;;;;;;;4.47;1.10;;;13.40;99.90;;;;;;4173687;28;20622;-77
2022/09/17 09:00:50;;;;;;;8.67;1.20;;;13.40;99.90;;;;;;4178169;22;20254;-77
2022/09/17 09:03:06;;;;;;;2.40;0.90;;;13.40;99.90;;;;;;4168216;28;20230;-77
2022/09/17 09:05:15;;;;;;;5.00;1.53;;;13.40;99.90;;;;;;4186009;28;20209;-76
2022/09/17 09:07:20;;;;;;;5.70;1.13;;;13.40;99.90;;;;;;4169773;28;20213;-77
2022/09/17 09:09:25;;;;;;;5.43;1.10;;;13.40;99.90;;;;;;4187814;28;20190;-76
2022/09/17 09:11:29;;;;;;;7.00;1.50;;;13.30;99.90;;;;;;4175621;28;20311;-75
2022/09/17 09:13:35;;;;;;;6.90;1.50;;;13.30;99.90;;;;;;4174044;28;20239;-76
2022/09/17 09:15:41;;;;;;;4.43;1.10;;;13.30;99.90;;;;;;4173320;28;20201;-76
2022/09/17 09:17:47;;;;;;;5.70;0.90;;;13.30;99.90;;;;;;4155525;28;20213;-75
2022/09/17 09:19:51;;;;;;;3.07;1.20;;;13.30;99.90;;;;;;4174651;28;20550;-77
2022/09/17 09:22:04;;;;;;;4.60;1.40;;;13.40;99.90;;;;;;4178098;28;20207;-76
2022/09/17 09:24:16;;;;;;;5.63;1.40;;;13.40;99.90;;;;;;4163357;28;20226;-77
2022/09/17 09:26:20;;;;;;;4.10;1.10;;;13.40;99.90;;;;;;4177816;28;20305;-75
2022/09/17 09:28:35;;;;;;;5.30;1.20;;;13.40;99.90;;;;;;4174213;28;20334;-76
2022/09/17 09:30:46;;;;;;;5.50;1.23;;;13.50;99.90;;;;;;4173025;28;20767;-76
2022/09/17 09:32:57;;;;;;;6.43;1.60;;;13.50;99.90;;;;;;4173480;28;20642;-77
2022/09/17 09:35:02;;;;;;;11.90;1.73;;;13.50;99.90;;;;;;4172955;28;20225;-74
2022/09/17 09:37:14;;;;;;;7.83;1.53;;;13.50;99.90;;;;;;4172474;28;20655;-75
2022/09/17 09:39:20;;;;;;;6.37;1.50;;;13.50;99.90;;;;;;4168904;28;20202;-75
2022/09/17 09:41:27;;;;;;;7.87;1.37;;;13.60;99.90;;;;;;4170976;28;20228;-75
2022/09/17 09:43:39;;;;;;;8.03;1.47;;;13.60;99.90;;;;;;4158671;28;20317;-78
2022/09/17 09:46:08;;;;;;;5.57;1.40;;;13.70;99.90;;;;;;4172853;28;20211;-76
2022/09/17 09:48:19;;;;;;;4.37;1.00;;;13.70;99.90;;;;;;4152847;28;20675;-76
2022/09/17 09:50:33;;;;;;;6.17;1.17;;;13.70;99.90;;;;;;4175912;28;20707;-77
2022/09/17 09:52:48;;;;;;;3.23;1.17;;;13.80;99.90;;;;;;4184919;28;20202;-78
2022/09/17 09:55:02;;;;;;;6.43;1.60;;;13.80;99.90;;;;;;4181845;28;20199;-79
2022/09/17 09:57:08;;;;;;;6.07;1.30;;;13.80;99.90;;;;;;4176786;28;20604;-76
2022/09/17 09:59:11;;;;;;;5.53;1.20;;;13.80;99.90;;;;;;4161047;28;20588;-75
2022/09/17 10:01:15;;;;;;;4.33;1.20;;;13.90;99.90;;;;;;4163412;28;20270;-78
2022/09/17 10:03:21;;;;;;;8.23;1.30;;;13.90;99.90;;;;;;4172158;28;20215;-72
2022/09/17 10:05:24;;;;;;;6.23;1.53;;;13.90;99.90;;;;;;4170680;28;20207;-75
2022/09/17 10:07:26;;;;;;;4.77;1.30;;;13.90;99.90;;;;;;4173294;28;20214;-79
2022/09/17 10:09:31;;;;;;;4.13;1.13;;;13.90;99.90;;;;;;4173006;28;20219;-75
2022/09/17 10:11:33;;;;;;;4.70;1.17;;;14.00;99.90;;;;;;4169904;28;20220;-75
2022/09/17 10:13:36;;;;;;;3.97;1.20;;;14.00;99.90;;;;;;4160589;28;20204;-75
2022/09/17 10:15:38;;;;;;;6.57;1.37;;;14.10;99.90;;;;;;4179091;28;20562;-75
2022/09/17 10:17:40;;;;;;;4.63;1.40;;;14.20;99.90;;;;;;4177941;28;20278;-76
2022/09/17 10:19:44;;;;;;;6.03;1.10;;;14.30;99.90;;;;;;4158033;28;20274;-78
2022/09/17 10:21:46;;;;;;;5.10;0.90;;;14.30;99.90;;;;;;4177764;28;20203;-76
2022/09/17 10:23:49;;;;;;;4.43;1.17;;;14.30;99.90;;;;;;4160274;28;20236;-75
2022/09/17 10:25:51;;;;;;;9.93;1.40;;;14.40;99.90;;;;;;4162964;28;20295;-74
2022/09/17 10:27:53;;;;;;;5.90;1.27;;;14.40;99.90;;;;;;4162149;28;20591;-74
2022/09/17 10:30:03;;;;;;;5.63;1.10;;;14.40;99.90;;;;;;4172961;28;20213;-75
2022/09/17 10:32:07;;;;;;;5.63;1.13;;;14.40;99.90;;;;;;4158892;28;20212;-74
2022/09/17 10:34:19;;;;;;;4.27;0.90;;;14.50;99.90;;;;;;4169894;28;20630;-74
2022/09/17 10:36:45;;;;;;;4.20;1.27;;;14.40;99.90;;;;;;4172359;28;20288;-74
2022/09/17 10:38:47;;;;;;;3.93;1.10;;;14.50;99.60;;;;;;4169300;28;20213;-75
2022/09/17 10:40:49;;;;;;;3.60;1.20;;;14.60;99.90;;;;;;4171337;28;20236;-75
2022/09/17 10:43:13;;;;;;;5.40;1.67;;;14.70;99.90;;;;;;4168277;28;20231;-75
2022/09/17 10:45:24;;;;;;;3.17;1.10;;;14.70;99.90;;;;;;4170979;28;20247;-75
2022/09/17 10:47:29;;;;;;;7.40;1.70;;;14.80;99.90;;;;;;4167072;28;20201;-75
2022/09/17 10:49:40;;;;;;;6.07;1.70;;;14.80;99.90;;;;;;4170086;28;20231;-75